sensor_id;sensor_type;location;lat;lon;timestamp;P1;durP1;ratioP1;P2;durP2;ratioP2
32864;SDS011;19219;44.500;11.188;2023-07-13T00:01:34;19.70;;;10.25;;
32864;SDS011;19219;44.500;11.188;2023-07-13T00:04:00;21.70;;;10.57;;
32864;SDS011;19219;44.500;11.188;2023-07-13T00:06:26;24.73;;;10.27;;
32864;SDS011;19219;44.500;11.188;2023-07-13T00:08:55;19.75;;;10.80;;
32864;SDS011;19219;44.500;11.188;2023-07-13T00:11:21;19.60;;;10.13;;
32864;SDS011;19219;44.500;11.188;2023-07-13T00:13:46;17.58;;;11.00;;
32864;SDS011;19219;44.500;11.188;2023-07-13T00:16:13;22.77;;;9.95;;
32864;SDS011;19219;44.500;11.188;2023-07-13T00:18:39;25.60;;;10.93;;
32864;SDS011;19219;44.500;11.188;2023-07-13T00:21:05;18.55;;;9.95;;
32864;SDS011;19219;44.500;11.188;2023-07-13T00:23:36;19.10;;;10.25;;
32864;SDS011;19219;44.500;11.188;2023-07-13T00:26:03;19.73;;;11.23;;
32864;SDS011;19219;44.500;11.188;2023-07-13T00:28:30;19.60;;;10.32;;
32864;SDS011;19219;44.500;11.188;2023-07-13T00:30:56;21.50;;;11.52;;
32864;SDS011;19219;44.500;11.188;2023-07-13T00:33:21;19.27;;;10.35;;
32864;SDS011;19219;44.500;11.188;2023-07-13T00:35:48;21.25;;;10.88;;
32864;SDS011;19219;44.500;11.188;2023-07-13T00:38:14;21.15;;;10.63;;
32864;SDS011;19219;44.500;11.188;2023-07-13T00:40:40;22.70;;;10.48;;
32864;SDS011;19219;44.500;11.188;2023-07-13T00:48:35;25.77;;;11.40;;
32864;SDS011;19219;44.500;11.188;2023-07-13T00:51:02;23.25;;;11.65;;
32864;SDS011;19219;44.500;11.188;2023-07-13T00:53:28;21.55;;;11.85;;
32864;SDS011;19219;44.500;11.188;2023-07-13T00:55:56;16.25;;;11.00;;
32864;SDS011;19219;44.500;11.188;2023-07-13T00:58:23;19.00;;;10.43;;
32864;SDS011;19219;44.500;11.188;2023-07-13T01:00:51;19.65;;;11.13;;
32864;SDS011;19219;44.500;11.188;2023-07-13T01:03:17;19.10;;;11.50;;
32864;SDS011;19219;44.500;11.188;2023-07-13T01:05:44;23.83;;;12.10;;
32864;SDS011;19219;44.500;11.188;2023-07-13T01:08:13;21.23;;;11.83;;
32864;SDS011;19219;44.500;11.188;2023-07-13T01:10:39;20.35;;;12.30;;
32864;SDS011;19219;44.500;11.188;2023-07-13T01:13:08;19.45;;;11.20;;
32864;SDS011;19219;44.500;11.188;2023-07-13T01:15:43;27.52;;;11.50;;
32864;SDS011;19219;44.500;11.188;2023-07-13T01:18:11;21.88;;;12.50;;
32864;SDS011;19219;44.500;11.188;2023-07-13T01:20:39;17.27;;;11.07;;
32864;SDS011;19219;44.500;11.188;2023-07-13T01:23:06;20.00;;;12.13;;
32864;SDS011;19219;44.500;11.188;2023-07-13T01:25:35;26.42;;;13.38;;
32864;SDS011;19219;44.500;11.188;2023-07-13T01:28:05;29.92;;;14.45;;
32864;SDS011;19219;44.500;11.188;2023-07-13T01:30:34;26.15;;;13.90;;
32864;SDS011;19219;44.500;11.188;2023-07-13T01:33:05;22.15;;;13.63;;
32864;SDS011;19219;44.500;11.188;2023-07-13T01:35:32;23.55;;;13.55;;
32864;SDS011;19219;44.500;11.188;2023-07-13T01:37:58;19.92;;;11.85;;
32864;SDS011;19219;44.500;11.188;2023-07-13T01:40:25;27.83;;;12.52;;
32864;SDS011;19219;44.500;11.188;2023-07-13T01:42:51;16.30;;;11.82;;
32864;SDS011;19219;44.500;11.188;2023-07-13T01:45:16;16.20;;;10.57;;
32864;SDS011;19219;44.500;11.188;2023-07-13T01:47:42;20.55;;;10.98;;
32864;SDS011;19219;44.500;11.188;2023-07-13T01:50:08;16.83;;;10.43;;
32864;SDS011;19219;44.500;11.188;2023-07-13T01:52:34;18.90;;;11.30;;
32864;SDS011;19219;44.500;11.188;2023-07-13T01:55:00;21.52;;;10.95;;
32864;SDS011;19219;44.500;11.188;2023-07-13T01:57:25;23.15;;;11.30;;
32864;SDS011;19219;44.500;11.188;2023-07-13T01:59:51;17.33;;;10.70;;
32864;SDS011;19219;44.500;11.188;2023-07-13T02:02:16;14.75;;;9.68;;
32864;SDS011;19219;44.500;11.188;2023-07-13T02:04:42;18.02;;;12.07;;
32864;SDS011;19219;44.500;11.188;2023-07-13T02:07:08;23.20;;;10.70;;
32864;SDS011;19219;44.500;11.188;2023-07-13T02:09:34;16.17;;;11.13;;
32864;SDS011;19219;44.500;11.188;2023-07-13T02:12:00;16.95;;;9.80;;
32864;SDS011;19219;44.500;11.188;2023-07-13T02:14:26;20.13;;;10.20;;
32864;SDS011;19219;44.500;11.188;2023-07-13T02:16:52;18.02;;;10.75;;
32864;SDS011;19219;44.500;11.188;2023-07-13T02:19:17;16.90;;;10.63;;
32864;SDS011;19219;44.500;11.188;2023-07-13T02:21:43;20.15;;;10.25;;
32864;SDS011;19219;44.500;11.188;2023-07-13T02:24:08;20.00;;;10.73;;
32864;SDS011;19219;44.500;11.188;2023-07-13T02:26:34;19.20;;;10.48;;
32864;SDS011;19219;44.500;11.188;2023-07-13T02:29:00;21.38;;;11.32;;
32864;SDS011;19219;44.500;11.188;2023-07-13T02:31:26;15.32;;;9.85;;
32864;SDS011;19219;44.500;11.188;2023-07-13T02:33:52;20.60;;;10.25;;
32864;SDS011;19219;44.500;11.188;2023-07-13T02:36:18;22.63;;;10.38;;
32864;SDS011;19219;44.500;11.188;2023-07-13T02:38:44;19.10;;;10.05;;
32864;SDS011;19219;44.500;11.188;2023-07-13T02:41:10;16.17;;;9.82;;
32864;SDS011;19219;44.500;11.188;2023-07-13T02:43:37;18.70;;;11.30;;
32864;SDS011;19219;44.500;11.188;2023-07-13T02:46:03;17.20;;;11.23;;
32864;SDS011;19219;44.500;11.188;2023-07-13T02:48:32;14.95;;;10.20;;
32864;SDS011;19219;44.500;11.188;2023-07-13T02:50:58;14.20;;;9.75;;
32864;SDS011;19219;44.500;11.188;2023-07-13T02:53:24;21.08;;;10.13;;
32864;SDS011;19219;44.500;11.188;2023-07-13T02:55:50;15.40;;;9.30;;
32864;SDS011;19219;44.500;11.188;2023-07-13T02:58:15;20.45;;;10.75;;
32864;SDS011;19219;44.500;11.188;2023-07-13T03:00:45;17.10;;;11.23;;
32864;SDS011;19219;44.500;11.188;2023-07-13T03:03:12;17.98;;;10.18;;
32864;SDS011;19219;44.500;11.188;2023-07-13T03:05:40;17.65;;;10.93;;
32864;SDS011;19219;44.500;11.188;2023-07-13T03:08:09;18.25;;;10.40;;
32864;SDS011;19219;44.500;11.188;2023-07-13T03:10:35;14.25;;;10.57;;
32864;SDS011;19219;44.500;11.188;2023-07-13T03:13:01;14.90;;;8.60;;
32864;SDS011;19219;44.500;11.188;2023-07-13T03:15:28;16.23;;;9.65;;
32864;SDS011;19219;44.500;11.188;2023-07-13T03:17:53;21.63;;;9.95;;
32864;SDS011;19219;44.500;11.188;2023-07-13T03:20:19;17.92;;;9.90;;
32864;SDS011;19219;44.500;11.188;2023-07-13T03:22:45;14.45;;;9.73;;
32864;SDS011;19219;44.500;11.188;2023-07-13T03:25:11;17.77;;;9.85;;
32864;SDS011;19219;44.500;11.188;2023-07-13T03:27:37;21.95;;;10.85;;
32864;SDS011;19219;44.500;11.188;2023-07-13T03:30:03;14.20;;;9.95;;
32864;SDS011;19219;44.500;11.188;2023-07-13T03:32:30;11.10;;;8.73;;
32864;SDS011;19219;44.500;11.188;2023-07-13T03:34:59;15.48;;;9.52;;
32864;SDS011;19219;44.500;11.188;2023-07-13T03:37:24;17.17;;;9.65;;
32864;SDS011;19219;44.500;11.188;2023-07-13T03:39:50;14.23;;;9.70;;
32864;SDS011;19219;44.500;11.188;2023-07-13T03:42:16;12.27;;;8.57;;
32864;SDS011;19219;44.500;11.188;2023-07-13T03:44:42;16.73;;;7.45;;
32864;SDS011;19219;44.500;11.188;2023-07-13T03:47:14;13.70;;;8.63;;
32864;SDS011;19219;44.500;11.188;2023-07-13T03:49:40;13.20;;;9.45;;
32864;SDS011;19219;44.500;11.188;2023-07-13T03:52:05;17.33;;;9.40;;
32864;SDS011;19219;44.500;11.188;2023-07-13T03:54:31;14.38;;;9.57;;
32864;SDS011;19219;44.500;11.188;2023-07-13T03:56:58;12.48;;;9.88;;
32864;SDS011;19219;44.500;11.188;2023-07-13T03:59:23;13.30;;;9.15;;
32864;SDS011;19219;44.500;11.188;2023-07-13T04:01:49;21.98;;;9.68;;
32864;SDS011;19219;44.500;11.188;2023-07-13T04:04:14;13.13;;;9.60;;
32864;SDS011;19219;44.500;11.188;2023-07-13T04:06:40;16.80;;;9.80;;
32864;SDS011;19219;44.500;11.188;2023-07-13T04:09:06;21.58;;;9.32;;
32864;SDS011;19219;44.500;11.188;2023-07-13T04:11:33;14.38;;;8.95;;
32864;SDS011;19219;44.500;11.188;2023-07-13T04:14:01;12.93;;;9.27;;
32864;SDS011;19219;44.500;11.188;2023-07-13T04:16:27;13.35;;;9.10;;
32864;SDS011;19219;44.500;11.188;2023-07-13T04:18:53;15.55;;;9.98;;
32864;SDS011;19219;44.500;11.188;2023-07-13T04:21:24;15.52;;;8.93;;
32864;SDS011;19219;44.500;11.188;2023-07-13T04:23:50;16.80;;;10.02;;
32864;SDS011;19219;44.500;11.188;2023-07-13T04:26:15;17.80;;;9.57;;
32864;SDS011;19219;44.500;11.188;2023-07-13T04:28:41;18.58;;;9.65;;
32864;SDS011;19219;44.500;11.188;2023-07-13T04:31:07;16.25;;;9.43;;
32864;SDS011;19219;44.500;11.188;2023-07-13T04:33:33;18.88;;;9.48;;
32864;SDS011;19219;44.500;11.188;2023-07-13T04:35:59;9.63;;;8.65;;
32864;SDS011;19219;44.500;11.188;2023-07-13T04:38:27;12.48;;;9.27;;
32864;SDS011;19219;44.500;11.188;2023-07-13T04:40:55;10.55;;;8.15;;
32864;SDS011;19219;44.500;11.188;2023-07-13T04:43:22;14.30;;;9.02;;
32864;SDS011;19219;44.500;11.188;2023-07-13T04:45:48;14.02;;;8.73;;
32864;SDS011;19219;44.500;11.188;2023-07-13T04:48:15;14.40;;;8.40;;
32864;SDS011;19219;44.500;11.188;2023-07-13T04:50:41;12.70;;;8.70;;
32864;SDS011;19219;44.500;11.188;2023-07-13T04:53:08;11.57;;;7.93;;
32864;SDS011;19219;44.500;11.188;2023-07-13T04:55:35;14.05;;;8.95;;
32864;SDS011;19219;44.500;11.188;2023-07-13T04:58:01;12.57;;;8.93;;
32864;SDS011;19219;44.500;11.188;2023-07-13T05:00:27;14.10;;;8.35;;
32864;SDS011;19219;44.500;11.188;2023-07-13T05:02:57;18.60;;;8.25;;
32864;SDS011;19219;44.500;11.188;2023-07-13T05:05:24;20.65;;;12.45;;
32864;SDS011;19219;44.500;11.188;2023-07-13T05:07:51;26.70;;;14.98;;
32864;SDS011;19219;44.500;11.188;2023-07-13T05:10:18;14.13;;;9.88;;
32864;SDS011;19219;44.500;11.188;2023-07-13T05:12:44;13.25;;;8.70;;
32864;SDS011;19219;44.500;11.188;2023-07-13T05:15:10;12.35;;;7.93;;
32864;SDS011;19219;44.500;11.188;2023-07-13T05:17:36;24.98;;;9.82;;
32864;SDS011;19219;44.500;11.188;2023-07-13T05:20:04;15.82;;;8.75;;
32864;SDS011;19219;44.500;11.188;2023-07-13T05:22:30;23.10;;;9.82;;
32864;SDS011;19219;44.500;11.188;2023-07-13T05:24:56;16.40;;;8.82;;
32864;SDS011;19219;44.500;11.188;2023-07-13T05:27:22;13.32;;;8.50;;
32864;SDS011;19219;44.500;11.188;2023-07-13T05:29:48;25.83;;;11.75;;
32864;SDS011;19219;44.500;11.188;2023-07-13T05:32:14;17.25;;;8.88;;
32864;SDS011;19219;44.500;11.188;2023-07-13T05:34:40;15.05;;;8.05;;
32864;SDS011;19219;44.500;11.188;2023-07-13T05:37:05;20.50;;;9.30;;
32864;SDS011;19219;44.500;11.188;2023-07-13T05:39:32;13.93;;;9.80;;
32864;SDS011;19219;44.500;11.188;2023-07-13T05:41:58;15.25;;;9.70;;
32864;SDS011;19219;44.500;11.188;2023-07-13T05:44:24;21.83;;;10.98;;
32864;SDS011;19219;44.500;11.188;2023-07-13T05:46:49;22.63;;;10.90;;
32864;SDS011;19219;44.500;11.188;2023-07-13T05:49:15;20.95;;;10.35;;
32864;SDS011;19219;44.500;11.188;2023-07-13T05:51:41;18.33;;;10.00;;
32864;SDS011;19219;44.500;11.188;2023-07-13T05:54:06;14.10;;;10.02;;
32864;SDS011;19219;44.500;11.188;2023-07-13T05:56:32;20.10;;;10.13;;
32864;SDS011;19219;44.500;11.188;2023-07-13T05:58:57;19.33;;;10.55;;
32864;SDS011;19219;44.500;11.188;2023-07-13T06:01:23;15.20;;;9.20;;
32864;SDS011;19219;44.500;11.188;2023-07-13T06:03:49;15.90;;;9.10;;
32864;SDS011;19219;44.500;11.188;2023-07-13T06:06:15;15.32;;;8.95;;
32864;SDS011;19219;44.500;11.188;2023-07-13T06:08:41;16.40;;;9.95;;
32864;SDS011;19219;44.500;11.188;2023-07-13T06:11:09;16.13;;;9.25;;
32864;SDS011;19219;44.500;11.188;2023-07-13T06:13:43;18.80;;;9.02;;
32864;SDS011;19219;44.500;11.188;2023-07-13T06:16:09;13.43;;;8.90;;
32864;SDS011;19219;44.500;11.188;2023-07-13T06:18:35;16.45;;;9.93;;
32864;SDS011;19219;44.500;11.188;2023-07-13T06:21:09;14.90;;;9.77;;
32864;SDS011;19219;44.500;11.188;2023-07-13T06:23:37;26.63;;;14.88;;
32864;SDS011;19219;44.500;11.188;2023-07-13T06:26:03;22.63;;;13.13;;
32864;SDS011;19219;44.500;11.188;2023-07-13T06:28:30;20.77;;;10.10;;
32864;SDS011;19219;44.500;11.188;2023-07-13T06:30:57;24.15;;;9.90;;
32864;SDS011;19219;44.500;11.188;2023-07-13T06:33:24;15.30;;;10.00;;
32864;SDS011;19219;44.500;11.188;2023-07-13T06:35:50;13.30;;;8.75;;
32864;SDS011;19219;44.500;11.188;2023-07-13T06:38:16;15.77;;;8.25;;
32864;SDS011;19219;44.500;11.188;2023-07-13T06:40:42;9.75;;;7.68;;
32864;SDS011;19219;44.500;11.188;2023-07-13T06:43:07;15.93;;;9.02;;
32864;SDS011;19219;44.500;11.188;2023-07-13T06:45:40;14.07;;;7.80;;
32864;SDS011;19219;44.500;11.188;2023-07-13T06:48:14;17.08;;;7.25;;
32864;SDS011;19219;44.500;11.188;2023-07-13T06:50:41;15.57;;;8.98;;
32864;SDS011;19219;44.500;11.188;2023-07-13T06:53:08;14.88;;;8.40;;
32864;SDS011;19219;44.500;11.188;2023-07-13T06:55:34;16.67;;;8.18;;
32864;SDS011;19219;44.500;11.188;2023-07-13T06:57:59;14.23;;;7.88;;
32864;SDS011;19219;44.500;11.188;2023-07-13T07:00:25;16.42;;;7.90;;
32864;SDS011;19219;44.500;11.188;2023-07-13T07:02:50;15.32;;;9.38;;
32864;SDS011;19219;44.500;11.188;2023-07-13T07:05:16;17.42;;;10.55;;
32864;SDS011;19219;44.500;11.188;2023-07-13T07:07:42;20.90;;;9.80;;
32864;SDS011;19219;44.500;11.188;2023-07-13T07:10:08;19.88;;;10.40;;
32864;SDS011;19219;44.500;11.188;2023-07-13T07:12:33;15.63;;;9.20;;
32864;SDS011;19219;44.500;11.188;2023-07-13T07:14:59;16.75;;;10.93;;
32864;SDS011;19219;44.500;11.188;2023-07-13T07:17:25;23.98;;;10.40;;
32864;SDS011;19219;44.500;11.188;2023-07-13T07:19:51;13.50;;;9.13;;
32864;SDS011;19219;44.500;11.188;2023-07-13T07:22:19;12.77;;;9.07;;
32864;SDS011;19219;44.500;11.188;2023-07-13T07:24:45;14.80;;;8.65;;
32864;SDS011;19219;44.500;11.188;2023-07-13T07:27:10;13.95;;;8.18;;
32864;SDS011;19219;44.500;11.188;2023-07-13T07:29:36;16.70;;;8.13;;
32864;SDS011;19219;44.500;11.188;2023-07-13T07:32:02;20.17;;;10.13;;
32864;SDS011;19219;44.500;11.188;2023-07-13T07:34:28;16.30;;;8.75;;
32864;SDS011;19219;44.500;11.188;2023-07-13T07:36:56;15.10;;;8.50;;
32864;SDS011;19219;44.500;11.188;2023-07-13T07:39:24;13.93;;;9.00;;
32864;SDS011;19219;44.500;11.188;2023-07-13T07:41:50;24.55;;;9.30;;
32864;SDS011;19219;44.500;11.188;2023-07-13T07:44:16;19.70;;;9.73;;
32864;SDS011;19219;44.500;11.188;2023-07-13T07:46:41;16.00;;;8.20;;
32864;SDS011;19219;44.500;11.188;2023-07-13T07:49:07;13.68;;;8.27;;
32864;SDS011;19219;44.500;11.188;2023-07-13T07:51:33;12.20;;;8.35;;
32864;SDS011;19219;44.500;11.188;2023-07-13T07:53:58;16.85;;;8.20;;
32864;SDS011;19219;44.500;11.188;2023-07-13T07:56:24;13.55;;;8.63;;
32864;SDS011;19219;44.500;11.188;2023-07-13T07:58:50;17.55;;;8.88;;
32864;SDS011;19219;44.500;11.188;2023-07-13T08:01:16;12.57;;;7.57;;
32864;SDS011;19219;44.500;11.188;2023-07-13T08:03:42;12.90;;;7.70;;
32864;SDS011;19219;44.500;11.188;2023-07-13T08:06:07;16.60;;;7.97;;
32864;SDS011;19219;44.500;11.188;2023-07-13T08:08:34;11.65;;;6.65;;
32864;SDS011;19219;44.500;11.188;2023-07-13T08:11:02;14.18;;;8.52;;
32864;SDS011;19219;44.500;11.188;2023-07-13T08:13:29;14.52;;;9.75;;
32864;SDS011;19219;44.500;11.188;2023-07-13T08:15:55;14.85;;;7.72;;
32864;SDS011;19219;44.500;11.188;2023-07-13T08:18:20;14.25;;;9.35;;
32864;SDS011;19219;44.500;11.188;2023-07-13T08:20:46;12.60;;;7.22;;
32864;SDS011;19219;44.500;11.188;2023-07-13T08:23:13;16.35;;;7.53;;
32864;SDS011;19219;44.500;11.188;2023-07-13T08:25:40;15.68;;;6.85;;
32864;SDS011;19219;44.500;11.188;2023-07-13T08:28:05;12.20;;;6.55;;
32864;SDS011;19219;44.500;11.188;2023-07-13T08:30:31;11.95;;;7.03;;
32864;SDS011;19219;44.500;11.188;2023-07-13T08:32:57;12.00;;;6.18;;
32864;SDS011;19219;44.500;11.188;2023-07-13T08:35:22;17.95;;;6.45;;
32864;SDS011;19219;44.500;11.188;2023-07-13T08:37:50;16.50;;;6.38;;
32864;SDS011;19219;44.500;11.188;2023-07-13T08:40:25;9.70;;;6.45;;
32864;SDS011;19219;44.500;11.188;2023-07-13T08:42:58;16.25;;;6.10;;
32864;SDS011;19219;44.500;11.188;2023-07-13T08:45:43;7.35;;;5.07;;
32864;SDS011;19219;44.500;11.188;2023-07-13T08:48:14;6.95;;;4.40;;
32864;SDS011;19219;44.500;11.188;2023-07-13T08:50:49;7.35;;;4.28;;
32864;SDS011;19219;44.500;11.188;2023-07-13T08:53:21;12.13;;;4.82;;
32864;SDS011;19219;44.500;11.188;2023-07-13T08:55:49;9.35;;;4.63;;
32864;SDS011;19219;44.500;11.188;2023-07-13T08:58:20;11.35;;;4.43;;
32864;SDS011;19219;44.500;11.188;2023-07-13T09:00:49;7.07;;;4.50;;
32864;SDS011;19219;44.500;11.188;2023-07-13T09:03:23;8.15;;;4.95;;
32864;SDS011;19219;44.500;11.188;2023-07-13T09:05:57;11.48;;;4.65;;
32864;SDS011;19219;44.500;11.188;2023-07-13T09:16:44;18.02;;;5.97;;
32864;SDS011;19219;44.500;11.188;2023-07-13T09:19:14;11.38;;;6.50;;
32864;SDS011;19219;44.500;11.188;2023-07-13T09:21:47;11.70;;;5.90;;
32864;SDS011;19219;44.500;11.188;2023-07-13T09:26:54;17.63;;;5.57;;
32864;SDS011;19219;44.500;11.188;2023-07-13T09:29:27;13.55;;;5.93;;
32864;SDS011;19219;44.500;11.188;2023-07-13T09:31:55;14.90;;;5.70;;
32864;SDS011;19219;44.500;11.188;2023-07-13T09:34:25;18.13;;;5.85;;
32864;SDS011;19219;44.500;11.188;2023-07-13T09:36:51;13.88;;;6.25;;
32864;SDS011;19219;44.500;11.188;2023-07-13T09:39:24;12.40;;;6.50;;
32864;SDS011;19219;44.500;11.188;2023-07-13T09:44:27;12.50;;;7.15;;
32864;SDS011;19219;44.500;11.188;2023-07-13T09:46:59;11.80;;;8.38;;
32864;SDS011;19219;44.500;11.188;2023-07-13T09:49:26;11.15;;;7.20;;
32864;SDS011;19219;44.500;11.188;2023-07-13T09:52:03;12.18;;;6.93;;
32864;SDS011;19219;44.500;11.188;2023-07-13T09:54:35;13.43;;;6.90;;
32864;SDS011;19219;44.500;11.188;2023-07-13T09:57:02;16.92;;;7.68;;
32864;SDS011;19219;44.500;11.188;2023-07-13T09:59:39;10.90;;;6.65;;
32864;SDS011;19219;44.500;11.188;2023-07-13T10:07:25;12.98;;;8.18;;
32864;SDS011;19219;44.500;11.188;2023-07-13T10:09:52;15.48;;;9.00;;
32864;SDS011;19219;44.500;11.188;2023-07-13T10:12:19;14.60;;;8.57;;
32864;SDS011;19219;44.500;11.188;2023-07-13T10:14:45;16.00;;;10.30;;
32864;SDS011;19219;44.500;11.188;2023-07-13T10:17:13;16.83;;;9.80;;
32864;SDS011;19219;44.500;11.188;2023-07-13T10:19:39;13.20;;;9.05;;
32864;SDS011;19219;44.500;11.188;2023-07-13T10:22:17;18.13;;;10.50;;
32864;SDS011;19219;44.500;11.188;2023-07-13T10:24:58;12.93;;;8.93;;
32864;SDS011;19219;44.500;11.188;2023-07-13T10:27:43;13.95;;;9.27;;
32864;SDS011;19219;44.500;11.188;2023-07-13T10:30:23;19.10;;;8.68;;
32864;SDS011;19219;44.500;11.188;2023-07-13T10:32:58;14.23;;;8.80;;
32864;SDS011;19219;44.500;11.188;2023-07-13T10:35:26;15.98;;;9.88;;
32864;SDS011;19219;44.500;11.188;2023-07-13T10:37:55;13.95;;;6.97;;
32864;SDS011;19219;44.500;11.188;2023-07-13T10:40:40;10.68;;;7.05;;
32864;SDS011;19219;44.500;11.188;2023-07-13T10:43:21;13.77;;;6.97;;
32864;SDS011;19219;44.500;11.188;2023-07-13T10:45:50;15.40;;;7.60;;
32864;SDS011;19219;44.500;11.188;2023-07-13T10:48:16;14.43;;;6.25;;
32864;SDS011;19219;44.500;11.188;2023-07-13T10:50:44;17.33;;;7.80;;
32864;SDS011;19219;44.500;11.188;2023-07-13T10:53:31;13.18;;;7.90;;
32864;SDS011;19219;44.500;11.188;2023-07-13T10:56:04;17.40;;;7.43;;
32864;SDS011;19219;44.500;11.188;2023-07-13T10:58:41;12.82;;;6.50;;
32864;SDS011;19219;44.500;11.188;2023-07-13T11:01:10;10.48;;;6.68;;
32864;SDS011;19219;44.500;11.188;2023-07-13T11:03:38;13.15;;;7.40;;
32864;SDS011;19219;44.500;11.188;2023-07-13T11:08:55;11.35;;;6.32;;
32864;SDS011;19219;44.500;11.188;2023-07-13T11:11:41;21.33;;;10.35;;
32864;SDS011;19219;44.500;11.188;2023-07-13T11:15:01;13.57;;;6.57;;
32864;SDS011;19219;44.500;11.188;2023-07-13T11:17:33;15.10;;;6.97;;
32864;SDS011;19219;44.500;11.188;2023-07-13T11:22:42;10.55;;;6.05;;
32864;SDS011;19219;44.500;11.188;2023-07-13T11:25:32;14.18;;;6.97;;
32864;SDS011;19219;44.500;11.188;2023-07-13T11:33:22;12.30;;;6.28;;
32864;SDS011;19219;44.500;11.188;2023-07-13T11:36:16;12.63;;;7.03;;
32864;SDS011;19219;44.500;11.188;2023-07-13T11:41:43;8.88;;;7.22;;
32864;SDS011;19219;44.500;11.188;2023-07-13T11:44:16;14.60;;;7.78;;
32864;SDS011;19219;44.500;11.188;2023-07-13T11:46:48;18.90;;;12.65;;
32864;SDS011;19219;44.500;11.188;2023-07-13T11:49:20;13.10;;;8.13;;
32864;SDS011;19219;44.500;11.188;2023-07-13T11:51:48;16.20;;;7.80;;
32864;SDS011;19219;44.500;11.188;2023-07-13T11:56:59;16.40;;;8.40;;
32864;SDS011;19219;44.500;11.188;2023-07-13T11:59:31;13.82;;;8.18;;
32864;SDS011;19219;44.500;11.188;2023-07-13T12:01:58;13.05;;;9.07;;
32864;SDS011;19219;44.500;11.188;2023-07-13T12:04:25;17.02;;;9.00;;
32864;SDS011;19219;44.500;11.188;2023-07-13T12:06:58;15.02;;;8.07;;
32864;SDS011;19219;44.500;11.188;2023-07-13T12:09:30;11.75;;;8.15;;
32864;SDS011;19219;44.500;11.188;2023-07-13T12:11:58;12.70;;;6.93;;
32864;SDS011;19219;44.500;11.188;2023-07-13T12:14:25;12.13;;;7.13;;
32864;SDS011;19219;44.500;11.188;2023-07-13T12:16:51;16.10;;;8.05;;
32864;SDS011;19219;44.500;11.188;2023-07-13T12:19:23;12.95;;;8.27;;
32864;SDS011;19219;44.500;11.188;2023-07-13T12:21:53;12.27;;;7.38;;
32864;SDS011;19219;44.500;11.188;2023-07-13T12:24:21;9.95;;;7.55;;
32864;SDS011;19219;44.500;11.188;2023-07-13T12:26:51;12.40;;;7.07;;
32864;SDS011;19219;44.500;11.188;2023-07-13T12:29:21;13.75;;;8.30;;
32864;SDS011;19219;44.500;11.188;2023-07-13T12:31:48;14.65;;;8.07;;
32864;SDS011;19219;44.500;11.188;2023-07-13T12:34:21;12.98;;;6.40;;
32864;SDS011;19219;44.500;11.188;2023-07-13T12:36:53;24.73;;;13.85;;
32864;SDS011;19219;44.500;11.188;2023-07-13T12:39:33;12.18;;;7.65;;
32864;SDS011;19219;44.500;11.188;2023-07-13T12:47:48;14.25;;;7.20;;
32864;SDS011;19219;44.500;11.188;2023-07-13T12:50:19;11.77;;;7.72;;
32864;SDS011;19219;44.500;11.188;2023-07-13T12:52:53;10.20;;;6.90;;
32864;SDS011;19219;44.500;11.188;2023-07-13T12:55:21;14.65;;;8.07;;
32864;SDS011;19219;44.500;11.188;2023-07-13T12:57:54;14.63;;;7.03;;
32864;SDS011;19219;44.500;11.188;2023-07-13T13:00:24;11.70;;;7.07;;
32864;SDS011;19219;44.500;11.188;2023-07-13T13:02:50;10.68;;;7.05;;
32864;SDS011;19219;44.500;11.188;2023-07-13T13:05:18;9.23;;;6.00;;
32864;SDS011;19219;44.500;11.188;2023-07-13T13:07:44;11.88;;;7.65;;
32864;SDS011;19219;44.500;11.188;2023-07-13T13:10:13;9.43;;;5.75;;
32864;SDS011;19219;44.500;11.188;2023-07-13T13:12:39;12.77;;;7.55;;
32864;SDS011;19219;44.500;11.188;2023-07-13T13:15:10;12.13;;;6.78;;
32864;SDS011;19219;44.500;11.188;2023-07-13T13:17:37;10.35;;;7.10;;
32864;SDS011;19219;44.500;11.188;2023-07-13T13:20:16;8.23;;;6.22;;
32864;SDS011;19219;44.500;11.188;2023-07-13T13:22:43;11.93;;;6.15;;
32864;SDS011;19219;44.500;11.188;2023-07-13T13:25:10;12.82;;;5.88;;
32864;SDS011;19219;44.500;11.188;2023-07-13T13:27:37;9.57;;;6.60;;
32864;SDS011;19219;44.500;11.188;2023-07-13T13:30:05;9.02;;;5.47;;
32864;SDS011;19219;44.500;11.188;2023-07-13T13:32:41;8.82;;;5.38;;
32864;SDS011;19219;44.500;11.188;2023-07-13T13:35:19;11.40;;;5.60;;
32864;SDS011;19219;44.500;11.188;2023-07-13T13:37:46;10.80;;;5.78;;
32864;SDS011;19219;44.500;11.188;2023-07-13T13:40:19;8.43;;;5.65;;
32864;SDS011;19219;44.500;11.188;2023-07-13T13:42:48;13.73;;;9.23;;
32864;SDS011;19219;44.500;11.188;2023-07-13T13:45:13;27.48;;;16.58;;
32864;SDS011;19219;44.500;11.188;2023-07-13T13:47:41;9.85;;;6.00;;
32864;SDS011;19219;44.500;11.188;2023-07-13T13:50:11;11.10;;;5.65;;
32864;SDS011;19219;44.500;11.188;2023-07-13T13:52:39;11.40;;;5.78;;
32864;SDS011;19219;44.500;11.188;2023-07-13T13:55:16;10.77;;;5.72;;
32864;SDS011;19219;44.500;11.188;2023-07-13T13:57:47;6.78;;;5.43;;
32864;SDS011;19219;44.500;11.188;2023-07-13T14:00:13;12.32;;;6.10;;
32864;SDS011;19219;44.500;11.188;2023-07-13T14:02:42;7.03;;;5.70;;
32864;SDS011;19219;44.500;11.188;2023-07-13T14:05:18;13.68;;;5.63;;
32864;SDS011;19219;44.500;11.188;2023-07-13T14:07:47;11.65;;;6.05;;
32864;SDS011;19219;44.500;11.188;2023-07-13T14:10:13;14.95;;;6.53;;
32864;SDS011;19219;44.500;11.188;2023-07-13T14:12:44;8.43;;;5.68;;
32864;SDS011;19219;44.500;11.188;2023-07-13T14:15:20;9.77;;;5.85;;
32864;SDS011;19219;44.500;11.188;2023-07-13T14:17:51;17.70;;;6.82;;
32864;SDS011;19219;44.500;11.188;2023-07-13T14:20:20;8.93;;;5.82;;
32864;SDS011;19219;44.500;11.188;2023-07-13T14:22:48;9.05;;;6.53;;
32864;SDS011;19219;44.500;11.188;2023-07-13T14:25:15;15.25;;;6.05;;
32864;SDS011;19219;44.500;11.188;2023-07-13T14:27:43;10.88;;;5.90;;
32864;SDS011;19219;44.500;11.188;2023-07-13T14:30:16;6.18;;;5.57;;
32864;SDS011;19219;44.500;11.188;2023-07-13T14:32:44;15.35;;;6.40;;
32864;SDS011;19219;44.500;11.188;2023-07-13T14:35:11;8.52;;;5.90;;
32864;SDS011;19219;44.500;11.188;2023-07-13T14:37:37;8.63;;;5.07;;
32864;SDS011;19219;44.500;11.188;2023-07-13T14:40:14;6.68;;;5.53;;
32864;SDS011;19219;44.500;11.188;2023-07-13T14:42:41;9.95;;;5.45;;
32864;SDS011;19219;44.500;11.188;2023-07-13T14:45:14;8.70;;;5.25;;
32864;SDS011;19219;44.500;11.188;2023-07-13T14:47:41;9.13;;;5.85;;
32864;SDS011;19219;44.500;11.188;2023-07-13T14:50:18;13.82;;;6.45;;
32864;SDS011;19219;44.500;11.188;2023-07-13T14:52:45;10.23;;;6.68;;
32864;SDS011;19219;44.500;11.188;2023-07-13T14:55:16;10.75;;;6.45;;
32864;SDS011;19219;44.500;11.188;2023-07-13T14:57:43;7.60;;;5.75;;
32864;SDS011;19219;44.500;11.188;2023-07-13T15:00:17;10.63;;;5.57;;
32864;SDS011;19219;44.500;11.188;2023-07-13T15:02:49;9.88;;;6.22;;
32864;SDS011;19219;44.500;11.188;2023-07-13T15:05:26;9.10;;;5.88;;
32864;SDS011;19219;44.500;11.188;2023-07-13T15:07:55;7.65;;;6.00;;
32864;SDS011;19219;44.500;11.188;2023-07-13T15:10:28;12.60;;;6.07;;
32864;SDS011;19219;44.500;11.188;2023-07-13T15:12:59;22.83;;;12.93;;